sensor_id;sensor_type;location;lat;lon;timestamp;P1;durP1;ratioP1;P2;durP2;ratioP2
72161;SDS011;60047;51.644;5.842;2022-09-24T00:01:44;15.3;;;10.4;;
72161;SDS011;60047;51.644;5.842;2022-09-24T00:06:45;14.4;;;9.6;;
72161;SDS011;60047;51.644;5.842;2022-09-24T00:11:44;13.7;;;9.1;;
72161;SDS011;60047;51.644;5.842;2022-09-24T00:16:44;13.1;;;9.3;;
72161;SDS011;60047;51.644;5.842;2022-09-24T00:21:44;16.8;;;9.8;;
72161;SDS011;60047;51.644;5.842;2022-09-24T00:26:44;14.3;;;9.8;;
72161;SDS011;60047;51.644;5.842;2022-09-24T00:31:44;14.1;;;10.0;;
72161;SDS011;60047;51.644;5.842;2022-09-24T00:36:44;14.9;;;10.4;;
72161;SDS011;60047;51.644;5.842;2022-09-24T00:41:44;13.9;;;10.5;;
72161;SDS011;60047;51.644;5.842;2022-09-24T00:46:44;14.0;;;9.8;;
72161;SDS011;60047;51.644;5.842;2022-09-24T00:51:45;15.5;;;10.8;;
72161;SDS011;60047;51.644;5.842;2022-09-24T00:56:44;14.0;;;9.8;;
72161;SDS011;60047;51.644;5.842;2022-09-24T01:01:44;14.5;;;10.0;;
72161;SDS011;60047;51.644;5.842;2022-09-24T01:06:44;17.0;;;10.1;;
72161;SDS011;60047;51.644;5.842;2022-09-24T01:11:56;16.4;;;10.9;;
72161;SDS011;60047;51.644;5.842;2022-09-24T01:17:15;16.2;;;10.5;;
72161;SDS011;60047;51.644;5.842;2022-09-24T01:22:21;15.4;;;10.4;;
72161;SDS011;60047;51.644;5.842;2022-09-24T01:27:41;15.6;;;10.1;;
72161;SDS011;60047;51.644;5.842;2022-09-24T01:31:48;15.9;;;10.0;;
72161;SDS011;60047;51.644;5.842;2022-09-24T01:36:44;13.7;;;10.0;;
72161;SDS011;60047;51.644;5.842;2022-09-24T01:41:44;13.4;;;10.3;;
72161;SDS011;60047;51.644;5.842;2022-09-24T01:46:44;13.8;;;10.0;;
72161;SDS011;60047;51.644;5.842;2022-09-24T01:51:49;12.7;;;9.8;;
72161;SDS011;60047;51.644;5.842;2022-09-24T01:56:55;13.5;;;10.5;;
72161;SDS011;60047;51.644;5.842;2022-09-24T02:01:45;14.0;;;10.0;;
72161;SDS011;60047;51.644;5.842;2022-09-24T02:06:49;17.1;;;10.4;;
72161;SDS011;60047;51.644;5.842;2022-09-24T02:11:44;15.3;;;9.9;;
72161;SDS011;60047;51.644;5.842;2022-09-24T02:16:45;14.7;;;10.5;;
72161;SDS011;60047;51.644;5.842;2022-09-24T02:21:45;14.1;;;10.2;;
72161;SDS011;60047;51.644;5.842;2022-09-24T02:26:44;13.7;;;9.5;;
72161;SDS011;60047;51.644;5.842;2022-09-24T02:31:47;14.0;;;9.7;;
72161;SDS011;60047;51.644;5.842;2022-09-24T02:36:44;13.5;;;10.3;;
72161;SDS011;60047;51.644;5.842;2022-09-24T02:41:44;14.9;;;10.4;;
72161;SDS011;60047;51.644;5.842;2022-09-24T02:46:45;15.2;;;9.6;;
72161;SDS011;60047;51.644;5.842;2022-09-24T02:56:44;14.9;;;10.6;;
72161;SDS011;60047;51.644;5.842;2022-09-24T03:01:45;15.3;;;9.9;;
72161;SDS011;60047;51.644;5.842;2022-09-24T03:06:44;13.6;;;9.2;;
72161;SDS011;60047;51.644;5.842;2022-09-24T03:11:44;16.4;;;11.3;;
72161;SDS011;60047;51.644;5.842;2022-09-24T03:16:44;15.2;;;10.5;;
72161;SDS011;60047;51.644;5.842;2022-09-24T03:21:44;15.9;;;10.6;;
72161;SDS011;60047;51.644;5.842;2022-09-24T03:26:44;14.0;;;9.6;;
72161;SDS011;60047;51.644;5.842;2022-09-24T03:31:44;14.4;;;10.7;;
72161;SDS011;60047;51.644;5.842;2022-09-24T03:36:44;15.3;;;10.5;;
72161;SDS011;60047;51.644;5.842;2022-09-24T03:41:45;15.0;;;10.6;;
72161;SDS011;60047;51.644;5.842;2022-09-24T03:46:45;16.3;;;10.9;;
72161;SDS011;60047;51.644;5.842;2022-09-24T03:51:45;15.1;;;11.0;;
72161;SDS011;60047;51.644;5.842;2022-09-24T03:56:44;17.6;;;11.8;;
72161;SDS011;60047;51.644;5.842;2022-09-24T04:01:44;16.6;;;11.2;;
72161;SDS011;60047;51.644;5.842;2022-09-24T04:06:44;16.9;;;11.5;;
72161;SDS011;60047;51.644;5.842;2022-09-24T04:11:45;17.3;;;11.6;;
72161;SDS011;60047;51.644;5.842;2022-09-24T04:16:45;18.9;;;12.0;;
72161;SDS011;60047;51.644;5.842;2022-09-24T04:21:45;18.3;;;12.1;;
72161;SDS011;60047;51.644;5.842;2022-09-24T04:26:45;16.8;;;11.7;;
72161;SDS011;60047;51.644;5.842;2022-09-24T04:31:45;17.5;;;12.1;;
72161;SDS011;60047;51.644;5.842;2022-09-24T04:36:45;17.5;;;11.7;;
72161;SDS011;60047;51.644;5.842;2022-09-24T04:41:45;17.8;;;11.8;;
72161;SDS011;60047;51.644;5.842;2022-09-24T04:46:45;18.6;;;11.4;;
72161;SDS011;60047;51.644;5.842;2022-09-24T04:51:45;18.7;;;11.8;;
72161;SDS011;60047;51.644;5.842;2022-09-24T04:56:45;16.5;;;11.3;;
72161;SDS011;60047;51.644;5.842;2022-09-24T05:01:45;16.9;;;11.4;;
72161;SDS011;60047;51.644;5.842;2022-09-24T05:06:45;17.8;;;12.6;;
72161;SDS011;60047;51.644;5.842;2022-09-24T05:11:45;17.0;;;11.6;;
72161;SDS011;60047;51.644;5.842;2022-09-24T05:16:45;15.8;;;11.4;;
72161;SDS011;60047;51.644;5.842;2022-09-24T05:21:45;15.8;;;10.8;;
72161;SDS011;60047;51.644;5.842;2022-09-24T05:26:45;17.4;;;11.8;;
72161;SDS011;60047;51.644;5.842;2022-09-24T05:31:45;15.9;;;10.7;;
72161;SDS011;60047;51.644;5.842;2022-09-24T05:36:45;15.9;;;11.3;;
72161;SDS011;60047;51.644;5.842;2022-09-24T05:41:45;20.9;;;11.5;;
72161;SDS011;60047;51.644;5.842;2022-09-24T05:46:45;16.6;;;11.1;;
72161;SDS011;60047;51.644;5.842;2022-09-24T05:51:46;15.0;;;11.0;;
72161;SDS011;60047;51.644;5.842;2022-09-24T05:56:45;15.3;;;10.6;;
72161;SDS011;60047;51.644;5.842;2022-09-24T06:01:45;14.5;;;10.2;;
72161;SDS011;60047;51.644;5.842;2022-09-24T06:06:45;15.1;;;9.9;;
72161;SDS011;60047;51.644;5.842;2022-09-24T06:11:45;15.3;;;10.0;;
72161;SDS011;60047;51.644;5.842;2022-09-24T06:16:45;15.8;;;10.0;;
72161;SDS011;60047;51.644;5.842;2022-09-24T06:21:45;16.7;;;10.6;;
72161;SDS011;60047;51.644;5.842;2022-09-24T06:26:45;15.6;;;10.4;;
72161;SDS011;60047;51.644;5.842;2022-09-24T06:31:45;15.3;;;10.5;;
72161;SDS011;60047;51.644;5.842;2022-09-24T06:36:45;15.0;;;10.4;;
72161;SDS011;60047;51.644;5.842;2022-09-24T06:41:45;13.2;;;10.0;;
72161;SDS011;60047;51.644;5.842;2022-09-24T06:46:45;15.0;;;10.6;;
72161;SDS011;60047;51.644;5.842;2022-09-24T06:51:45;13.5;;;9.9;;
72161;SDS011;60047;51.644;5.842;2022-09-24T06:56:45;14.8;;;10.7;;
72161;SDS011;60047;51.644;5.842;2022-09-24T07:01:45;13.5;;;10.6;;
72161;SDS011;60047;51.644;5.842;2022-09-24T07:06:45;14.1;;;10.3;;
72161;SDS011;60047;51.644;5.842;2022-09-24T07:11:45;16.6;;;10.5;;
72161;SDS011;60047;51.644;5.842;2022-09-24T07:16:46;16.1;;;10.8;;
72161;SDS011;60047;51.644;5.842;2022-09-24T07:21:45;14.4;;;9.7;;
72161;SDS011;60047;51.644;5.842;2022-09-24T07:26:45;15.1;;;10.3;;
72161;SDS011;60047;51.644;5.842;2022-09-24T07:31:45;17.9;;;11.8;;
72161;SDS011;60047;51.644;5.842;2022-09-24T07:36:45;15.1;;;11.1;;
72161;SDS011;60047;51.644;5.842;2022-09-24T07:41:45;13.5;;;10.0;;
72161;SDS011;60047;51.644;5.842;2022-09-24T07:46:45;14.1;;;10.1;;
72161;SDS011;60047;51.644;5.842;2022-09-24T07:51:45;13.6;;;9.3;;
72161;SDS011;60047;51.644;5.842;2022-09-24T07:56:45;13.9;;;9.7;;
72161;SDS011;60047;51.644;5.842;2022-09-24T08:01:45;13.6;;;9.8;;
72161;SDS011;60047;51.644;5.842;2022-09-24T08:06:45;12.6;;;9.0;;
72161;SDS011;60047;51.644;5.842;2022-09-24T08:11:47;14.5;;;9.7;;
72161;SDS011;60047;51.644;5.842;2022-09-24T08:16:45;15.1;;;10.4;;
72161;SDS011;60047;51.644;5.842;2022-09-24T08:21:45;12.3;;;9.2;;
72161;SDS011;60047;51.644;5.842;2022-09-24T08:26:45;13.6;;;9.3;;
72161;SDS011;60047;51.644;5.842;2022-09-24T08:31:45;12.1;;;9.1;;
72161;SDS011;60047;51.644;5.842;2022-09-24T08:36:45;13.7;;;9.6;;
72161;SDS011;60047;51.644;5.842;2022-09-24T08:41:51;13.0;;;9.5;;
72161;SDS011;60047;51.644;5.842;2022-09-24T08:46:46;12.8;;;9.7;;
72161;SDS011;60047;51.644;5.842;2022-09-24T08:51:47;12.4;;;9.0;;
72161;SDS011;60047;51.644;5.842;2022-09-24T08:56:45;12.6;;;9.0;;
72161;SDS011;60047;51.644;5.842;2022-09-24T09:01:47;12.7;;;8.7;;
72161;SDS011;60047;51.644;5.842;2022-09-24T09:06:54;13.7;;;8.8;;
72161;SDS011;60047;51.644;5.842;2022-09-24T09:11:51;13.0;;;9.7;;
72161;SDS011;60047;51.644;5.842;2022-09-24T09:16:46;14.0;;;9.5;;
72161;SDS011;60047;51.644;5.842;2022-09-24T09:21:47;14.1;;;9.4;;
72161;SDS011;60047;51.644;5.842;2022-09-24T09:26:51;13.0;;;9.1;;
72161;SDS011;60047;51.644;5.842;2022-09-24T09:31:57;12.5;;;9.3;;
72161;SDS011;60047;51.644;5.842;2022-09-24T09:37:53;13.8;;;9.8;;
72161;SDS011;60047;51.644;5.842;2022-09-24T09:42:21;13.7;;;9.0;;
72161;SDS011;60047;51.644;5.842;2022-09-24T09:46:48;14.0;;;9.3;;
72161;SDS011;60047;51.644;5.842;2022-09-24T09:51:46;12.6;;;8.5;;
72161;SDS011;60047;51.644;5.842;2022-09-24T09:56:46;12.5;;;9.4;;
72161;SDS011;60047;51.644;5.842;2022-09-24T10:01:49;14.0;;;9.2;;
72161;SDS011;60047;51.644;5.842;2022-09-24T10:06:45;15.0;;;9.3;;
72161;SDS011;60047;51.644;5.842;2022-09-24T10:11:46;12.0;;;8.7;;
72161;SDS011;60047;51.644;5.842;2022-09-24T10:16:54;13.6;;;9.7;;
72161;SDS011;60047;51.644;5.842;2022-09-24T10:21:46;14.4;;;9.7;;
72161;SDS011;60047;51.644;5.842;2022-09-24T10:26:46;13.3;;;8.9;;
72161;SDS011;60047;51.644;5.842;2022-09-24T10:31:46;12.0;;;9.1;;
72161;SDS011;60047;51.644;5.842;2022-09-24T10:36:49;14.9;;;9.8;;
72161;SDS011;60047;51.644;5.842;2022-09-24T10:41:46;13.9;;;9.3;;
72161;SDS011;60047;51.644;5.842;2022-09-24T10:52:25;13.7;;;9.1;;
72161;SDS011;60047;51.644;5.842;2022-09-24T10:56:51;12.9;;;9.8;;
72161;SDS011;60047;51.644;5.842;2022-09-24T11:01:58;14.6;;;9.9;;
72161;SDS011;60047;51.644;5.842;2022-09-24T11:07:43;14.5;;;9.7;;
72161;SDS011;60047;51.644;5.842;2022-09-24T11:12:31;14.2;;;9.9;;
72161;SDS011;60047;51.644;5.842;2022-09-24T11:18:09;14.1;;;9.6;;
72161;SDS011;60047;51.644;5.842;2022-09-24T11:23:00;14.2;;;10.1;;
72161;SDS011;60047;51.644;5.842;2022-09-24T11:29:18;14.9;;;10.9;;
72161;SDS011;60047;51.644;5.842;2022-09-24T11:33:54;16.5;;;10.9;;
72161;SDS011;60047;51.644;5.842;2022-09-24T11:39:20;16.5;;;10.5;;
72161;SDS011;60047;51.644;5.842;2022-09-24T11:46:19;15.9;;;10.9;;
72161;SDS011;60047;51.644;5.842;2022-09-24T11:51:21;16.4;;;10.7;;
72161;SDS011;60047;51.644;5.842;2022-09-24T11:55:40;15.0;;;10.8;;
72161;SDS011;60047;51.644;5.842;2022-09-24T11:58:43;18.1;;;10.6;;
72161;SDS011;60047;51.644;5.842;2022-09-24T12:02:12;17.0;;;11.8;;
72161;SDS011;60047;51.644;5.842;2022-09-24T12:06:47;18.2;;;11.8;;
72161;SDS011;60047;51.644;5.842;2022-09-24T12:11:47;15.3;;;11.8;;
72161;SDS011;60047;51.644;5.842;2022-09-24T12:16:47;16.9;;;11.2;;
72161;SDS011;60047;51.644;5.842;2022-09-24T12:21:46;17.3;;;11.9;;
72161;SDS011;60047;51.644;5.842;2022-09-24T12:26:46;17.4;;;12.0;;
72161;SDS011;60047;51.644;5.842;2022-09-24T12:32:13;18.0;;;12.0;;
72161;SDS011;60047;51.644;5.842;2022-09-24T12:37:00;18.3;;;12.5;;
72161;SDS011;60047;51.644;5.842;2022-09-24T12:41:46;18.4;;;12.0;;
72161;SDS011;60047;51.644;5.842;2022-09-24T12:46:50;17.9;;;11.5;;
72161;SDS011;60047;51.644;5.842;2022-09-24T12:51:46;18.5;;;12.1;;
72161;SDS011;60047;51.644;5.842;2022-09-24T12:56:46;16.3;;;11.5;;
72161;SDS011;60047;51.644;5.842;2022-09-24T13:01:46;16.6;;;11.7;;
72161;SDS011;60047;51.644;5.842;2022-09-24T13:06:46;16.6;;;12.7;;
72161;SDS011;60047;51.644;5.842;2022-09-24T13:11:46;17.1;;;11.9;;
72161;SDS011;60047;51.644;5.842;2022-09-24T13:16:47;16.7;;;11.8;;
72161;SDS011;60047;51.644;5.842;2022-09-24T13:21:52;20.2;;;13.2;;
72161;SDS011;60047;51.644;5.842;2022-09-24T13:26:46;22.9;;;13.8;;
72161;SDS011;60047;51.644;5.842;2022-09-24T13:31:47;20.2;;;13.1;;
72161;SDS011;60047;51.644;5.842;2022-09-24T13:36:48;18.9;;;12.8;;
72161;SDS011;60047;51.644;5.842;2022-09-24T13:41:52;20.3;;;13.1;;
72161;SDS011;60047;51.644;5.842;2022-09-24T13:46:55;20.3;;;13.0;;
72161;SDS011;60047;51.644;5.842;2022-09-24T13:51:56;20.8;;;13.9;;
72161;SDS011;60047;51.644;5.842;2022-09-24T13:56:55;23.2;;;14.2;;
72161;SDS011;60047;51.644;5.842;2022-09-24T14:01:46;16.7;;;12.6;;
72161;SDS011;60047;51.644;5.842;2022-09-24T14:06:47;17.8;;;13.0;;
72161;SDS011;60047;51.644;5.842;2022-09-24T14:11:48;20.0;;;12.2;;
72161;SDS011;60047;51.644;5.842;2022-09-24T14:16:46;17.5;;;12.1;;
72161;SDS011;60047;51.644;5.842;2022-09-24T14:21:47;16.7;;;12.0;;
72161;SDS011;60047;51.644;5.842;2022-09-24T14:26:48;17.1;;;11.8;;
72161;SDS011;60047;51.644;5.842;2022-09-24T14:31:53;18.7;;;11.7;;
72161;SDS011;60047;51.644;5.842;2022-09-24T14:36:55;15.5;;;11.2;;
72161;SDS011;60047;51.644;5.842;2022-09-24T14:41:46;18.7;;;13.5;;
72161;SDS011;60047;51.644;5.842;2022-09-24T14:46:55;16.9;;;12.2;;
72161;SDS011;60047;51.644;5.842;2022-09-24T14:51:58;18.8;;;12.1;;
72161;SDS011;60047;51.644;5.842;2022-09-24T14:56:49;17.2;;;11.7;;
72161;SDS011;60047;51.644;5.842;2022-09-24T15:01:46;24.1;;;14.1;;
72161;SDS011;60047;51.644;5.842;2022-09-24T15:06:46;18.8;;;13.9;;
72161;SDS011;60047;51.644;5.842;2022-09-24T15:11:46;17.8;;;12.5;;
72161;SDS011;60047;51.644;5.842;2022-09-24T15:17:06;16.2;;;11.8;;
72161;SDS011;60047;51.644;5.842;2022-09-24T15:21:47;17.1;;;11.2;;
72161;SDS011;60047;51.644;5.842;2022-09-24T15:26:47;16.3;;;11.1;;
72161;SDS011;60047;51.644;5.842;2022-09-24T15:31:46;14.2;;;10.4;;
72161;SDS011;60047;51.644;5.842;2022-09-24T15:36:47;16.4;;;11.5;;
72161;SDS011;60047;51.644;5.842;2022-09-24T15:41:56;15.3;;;10.8;;
72161;SDS011;60047;51.644;5.842;2022-09-24T15:46:46;13.5;;;10.2;;
72161;SDS011;60047;51.644;5.842;2022-09-24T15:51:47;12.4;;;9.7;;
72161;SDS011;60047;51.644;5.842;2022-09-24T15:56:57;13.3;;;9.2;;
72161;SDS011;60047;51.644;5.842;2022-09-24T16:01:48;11.4;;;8.6;;
72161;SDS011;60047;51.644;5.842;2022-09-24T16:06:47;11.7;;;9.0;;
72161;SDS011;60047;51.644;5.842;2022-09-24T16:11:47;12.9;;;8.9;;
72161;SDS011;60047;51.644;5.842;2022-09-24T16:16:47;12.3;;;8.5;;
72161;SDS011;60047;51.644;5.842;2022-09-24T16:21:47;14.7;;;8.4;;
72161;SDS011;60047;51.644;5.842;2022-09-24T16:27:03;11.1;;;8.4;;
72161;SDS011;60047;51.644;5.842;2022-09-24T16:31:47;11.8;;;8.4;;
72161;SDS011;60047;51.644;5.842;2022-09-24T16:36:47;10.3;;;7.3;;
72161;SDS011;60047;51.644;5.842;2022-09-24T16:41:57;10.8;;;7.8;;
72161;SDS011;60047;51.644;5.842;2022-09-24T16:47:01;10.9;;;8.4;;
72161;SDS011;60047;51.644;5.842;2022-09-24T16:51:47;10.4;;;7.7;;
72161;SDS011;60047;51.644;5.842;2022-09-24T16:56:47;12.5;;;7.7;;
72161;SDS011;60047;51.644;5.842;2022-09-24T17:01:47;10.1;;;8.0;;
72161;SDS011;60047;51.644;5.842;2022-09-24T17:06:47;10.0;;;7.5;;
72161;SDS011;60047;51.644;5.842;2022-09-24T17:11:47;10.3;;;7.1;;
72161;SDS011;60047;51.644;5.842;2022-09-24T17:16:47;10.1;;;7.4;;
72161;SDS011;60047;51.644;5.842;2022-09-24T17:21:47;9.0;;;7.1;;
72161;SDS011;60047;51.644;5.842;2022-09-24T17:26:47;9.9;;;7.2;;
72161;SDS011;60047;51.644;5.842;2022-09-24T17:31:47;9.9;;;7.1;;
72161;SDS011;60047;51.644;5.842;2022-09-24T17:36:47;8.4;;;6.6;;
72161;SDS011;60047;51.644;5.842;2022-09-24T17:41:47;8.6;;;7.0;;
72161;SDS011;60047;51.644;5.842;2022-09-24T17:46:47;9.6;;;6.7;;
72161;SDS011;60047;51.644;5.842;2022-09-24T17:51:47;11.9;;;6.9;;
72161;SDS011;60047;51.644;5.842;2022-09-24T17:56:47;9.2;;;7.2;;
72161;SDS011;60047;51.644;5.842;2022-09-24T18:01:47;9.0;;;6.9;;
72161;SDS011;60047;51.644;5.842;2022-09-24T18:06:47;10.8;;;7.8;;
72161;SDS011;60047;51.644;5.842;2022-09-24T18:11:48;8.3;;;6.9;;
72161;SDS011;60047;51.644;5.842;2022-09-24T18:16:47;9.5;;;7.3;;
72161;SDS011;60047;51.644;5.842;2022-09-24T18:21:47;10.3;;;7.3;;
72161;SDS011;60047;51.644;5.842;2022-09-24T18:26:47;10.5;;;7.5;;
72161;SDS011;60047;51.644;5.842;2022-09-24T18:31:47;11.9;;;7.3;;
72161;SDS011;60047;51.644;5.842;2022-09-24T18:36:47;8.4;;;6.3;;
72161;SDS011;60047;51.644;5.842;2022-09-24T18:41:47;8.6;;;7.1;;
72161;SDS011;60047;51.644;5.842;2022-09-24T18:46:47;10.0;;;7.2;;
72161;SDS011;60047;51.644;5.842;2022-09-24T18:51:47;9.7;;;6.8;;
72161;SDS011;60047;51.644;5.842;2022-09-24T18:56:47;10.0;;;6.3;;
72161;SDS011;60047;51.644;5.842;2022-09-24T19:01:47;9.8;;;6.6;;
72161;SDS011;60047;51.644;5.842;2022-09-24T19:06:47;9.0;;;5.9;;
72161;SDS011;60047;51.644;5.842;2022-09-24T19:11:47;9.0;;;6.0;;
72161;SDS011;60047;51.644;5.842;2022-09-24T19:16:47;9.2;;;5.9;;
72161;SDS011;60047;51.644;5.842;2022-09-24T19:21:47;8.3;;;5.4;;
72161;SDS011;60047;51.644;5.842;2022-09-24T19:26:47;7.7;;;5.3;;
72161;SDS011;60047;51.644;5.842;2022-09-24T19:31:47;8.9;;;5.2;;
72161;SDS011;60047;51.644;5.842;2022-09-24T19:36:47;8.1;;;5.2;;
72161;SDS011;60047;51.644;5.842;2022-09-24T19:41:47;7.7;;;5.0;;
72161;SDS011;60047;51.644;5.842;2022-09-24T19:46:47;7.5;;;4.7;;
72161;SDS011;60047;51.644;5.842;2022-09-24T19:51:47;7.3;;;5.1;;
72161;SDS011;60047;51.644;5.842;2022-09-24T19:56:47;7.3;;;4.6;;
72161;SDS011;60047;51.644;5.842;2022-09-24T20:01:47;11.2;;;4.8;;
72161;SDS011;60047;51.644;5.842;2022-09-24T20:06:47;7.8;;;4.6;;
72161;SDS011;60047;51.644;5.842;2022-09-24T20:11:47;7.8;;;4.6;;
72161;SDS011;60047;51.644;5.842;2022-09-24T20:16:47;8.8;;;4.6;;
72161;SDS011;60047;51.644;5.842;2022-09-24T20:21:47;8.0;;;4.0;;
72161;SDS011;60047;51.644;5.842;2022-09-24T20:26:47;7.5;;;4.0;;
72161;SDS011;60047;51.644;5.842;2022-09-24T20:31:48;6.6;;;3.8;;
72161;SDS011;60047;51.644;5.842;2022-09-24T20:36:47;8.7;;;3.8;;
72161;SDS011;60047;51.644;5.842;2022-09-24T20:41:47;8.3;;;4.0;;
72161;SDS011;60047;51.644;5.842;2022-09-24T20:46:47;7.0;;;4.0;;
72161;SDS011;60047;51.644;5.842;2022-09-24T20:51:47;7.6;;;3.5;;
72161;SDS011;60047;51.644;5.842;2022-09-24T20:56:47;7.3;;;3.6;;
72161;SDS011;60047;51.644;5.842;2022-09-24T21:01:47;6.4;;;3.7;;
72161;SDS011;60047;51.644;5.842;2022-09-24T21:06:48;7.6;;;3.4;;
72161;SDS011;60047;51.644;5.842;2022-09-24T21:11:47;6.8;;;3.9;;
72161;SDS011;60047;51.644;5.842;2022-09-24T21:16:47;6.7;;;3.8;;
72161;SDS011;60047;51.644;5.842;2022-09-24T21:21:47;6.5;;;3.6;;
72161;SDS011;60047;51.644;5.842;2022-09-24T21:26:47;8.0;;;3.5;;
72161;SDS011;60047;51.644;5.842;2022-09-24T21:31:47;8.8;;;3.7;;
72161;SDS011;60047;51.644;5.842;2022-09-24T21:36:47;5.7;;;3.3;;
72161;SDS011;60047;51.644;5.842;2022-09-24T21:41:48;8.1;;;3.7;;
72161;SDS011;60047;51.644;5.842;2022-09-24T21:46:47;5.6;;;3.5;;
72161;SDS011;60047;51.644;5.842;2022-09-24T21:51:47;7.2;;;3.4;;
72161;SDS011;60047;51.644;5.842;2022-09-24T21:56:48;6.9;;;3.5;;
72161;SDS011;60047;51.644;5.842;2022-09-24T22:01:48;7.2;;;3.3;;
72161;SDS011;60047;51.644;5.842;2022-09-24T22:06:47;7.1;;;3.1;;
72161;SDS011;60047;51.644;5.842;2022-09-24T22:11:48;7.7;;;3.3;;
72161;SDS011;60047;51.644;5.842;2022-09-24T22:16:47;6.1;;;3.4;;
72161;SDS011;60047;51.644;5.842;2022-09-24T22:21:48;6.4;;;3.4;;
72161;SDS011;60047;51.644;5.842;2022-09-24T22:26:47;6.6;;;3.2;;
72161;SDS011;60047;51.644;5.842;2022-09-24T22:31:47;6.8;;;3.1;;
72161;SDS011;60047;51.644;5.842;2022-09-24T22:36:48;8.3;;;3.2;;
72161;SDS011;60047;51.644;5.842;2022-09-24T22:41:48;6.0;;;3.0;;
72161;SDS011;60047;51.644;5.842;2022-09-24T22:46:48;7.3;;;3.1;;
72161;SDS011;60047;51.644;5.842;2022-09-24T22:51:48;5.0;;;3.0;;
72161;SDS011;60047;51.644;5.842;2022-09-24T22:56:48;7.1;;;3.0;;
72161;SDS011;60047;51.644;5.842;2022-09-24T23:01:47;5.3;;;2.9;;
72161;SDS011;60047;51.644;5.842;2022-09-24T23:06:48;7.8;;;3.1;;
72161;SDS011;60047;51.644;5.842;2022-09-24T23:11:48;6.8;;;2.8;;
72161;SDS011;60047;51.644;5.842;2022-09-24T23:16:48;5.1;;;2.6;;
72161;SDS011;60047;51.644;5.842;2022-09-24T23:21:48;8.3;;;2.6;;
72161;SDS011;60047;51.644;5.842;2022-09-24T23:26:48;6.6;;;2.8;;
72161;SDS011;60047;51.644;5.842;2022-09-24T23:31:48;4.7;;;2.6;;
72161;SDS011;60047;51.644;5.842;2022-09-24T23:36:48;4.9;;;2.9;;
72161;SDS011;60047;51.644;5.842;2022-09-24T23:41:48;6.2;;;2.7;;
72161;SDS011;60047;51.644;5.842;2022-09-24T23:46:48;6.0;;;2.6;;
72161;SDS011;60047;51.644;5.842;2022-09-24T23:51:48;6.0;;;2.6;;
72161;SDS011;60047;51.644;5.842;2022-09-24T23:56:48;6.7;;;2.6;;
